Tuesday, October 17, 2017, 2:49 PM EDT
Back to Local

KDMH, Baltimore Downtown

Location: Baltimore, MD, United States Lat: 39.283
Local Time: 2:49 PM EDT (18:49 GMT) Lon: -76.617
Time Zone: US/Eastern Elev: 19 ft

Show me the last for .
Show Coded

Time T Td Feel RH Dir Speed Gust Alt SLP Vis Weather Sky Remarks
2017-10-17 13:54 60 32 - 34 - - - 30.32 30.32 0 6-hr Min Temp (2pm): 48.0°F
6-hr Max Temp (2pm): 62.1°F
2017-10-17 12:54 58 32 - 37 - - - 30.35 30.35 0 None
2017-10-17 11:54 56 33 - 41 - - - 30.37 30.37 0 None
2017-10-17 10:54 53 33 - 46 - - - 30.39 30.39 0 None
2017-10-17 09:54 51 32 - 47 - - - 30.40 30.40 0 None
2017-10-17 08:54 49 35 - 58 - - - 30.39 30.39 0 None
2017-10-17 07:54 48 36 - 62 - - - 30.36 30.36 0 6-hr Min Temp (8am): 48.0°F
6-hr Max Temp (8am): 53.1°F
2017-10-17 06:54 48 36 - 62 - - - 30.35 30.34 0 None
2017-10-17 05:54 49 36 - 60 - - - 30.33 30.33 0 None
2017-10-17 04:54 50 36 - 58 - - - 30.31 30.31 0 None
2017-10-17 03:54 50 36 - 58 - - - 30.29 30.29 0 None
2017-10-17 02:54 51 36 - 56 - - - 30.28 30.28 0 None
2017-10-17 01:54 53 35 - 50 - - - 30.27 30.27 0 6-hr Min Temp (2am): 53.1°F
6-hr Max Temp (2am): 61.0°F
2017-10-17 00:54 54 36 - 50 - - - 30.26 30.26 0 24-hr Min Temp (1am): 54.0°F
24-hr Max Temp (1am): 73.9°F
2017-10-16 23:54 55 35 - 46 - - - 30.26 30.25 0 None
2017-10-16 22:54 56 35 - 45 - - - 30.24 30.24 0 None
2017-10-16 21:54 58 35 - 42 - - - 30.22 30.22 0 None
2017-10-16 20:54 59 35 - 40 - - - 30.20 30.19 0 None
2017-10-16 19:54 61 36 - 39 - - - 30.17 30.17 0 6-hr Min Temp (8pm): 60.1°F
6-hr Max Temp (8pm): 64.0°F
2017-10-16 18:54 62 36 - 37 - - - 30.14 30.14 0 None
2017-10-16 17:54 64 35 - 33 - - - 30.12 30.12 0 None
2017-10-16 16:54 64 37 - 36 - - - 30.11 30.11 0 None
2017-10-16 15:54 64 38 - 38 - - - 30.10 30.09 0 None
2017-10-16 14:54 62 39 - 42 - - - 30.09 30.09 0 None

Support USWX by starting your Amazon purchase here.